Time;durP1;ratioP1;P1;durP2;ratioP2;P2;SDS_P1;SDS_P2;PMS_P1;PMS_P2;Temp;Humidity;BMP_temperature;BMP_pressure;BME280_temperature;BME280_humidity;BME280_pressure;Samples;Min_cycle;Max_cycle;Signal;HPM_P1;HPM_P2
2023/05/17 00:02:22;;;;;;;3.20;0.85;;;6.30;69.10;;;;;;5088516;28;20103;-50
2023/05/17 00:04:48;;;;;;;3.58;0.90;;;6.20;69.70;;;;;;5105729;28;20507;-49
2023/05/17 00:07:13;;;;;;;4.75;1.00;;;6.20;69.70;;;;;;5086478;28;20153;-49
2023/05/17 00:09:39;;;;;;;4.50;1.00;;;6.20;70.20;;;;;;5108934;28;20032;-49
2023/05/17 00:12:05;;;;;;;2.00;0.77;;;6.10;70.60;;;;;;5088302;28;20300;-50
2023/05/17 00:14:30;;;;;;;1.40;0.70;;;6.10;71.20;;;;;;5108330;28;20031;-47
2023/05/17 00:16:56;;;;;;;4.85;0.85;;;6.10;71.60;;;;;;5086511;28;20024;-52
2023/05/17 00:19:21;;;;;;;5.65;0.95;;;6.10;72.50;;;;;;5107451;28;20023;-50
2023/05/17 00:21:46;;;;;;;3.13;1.30;;;6.00;73.40;;;;;;5086436;28;20055;-50
2023/05/17 00:24:12;;;;;;;4.63;1.00;;;6.00;76.00;;;;;;5107289;28;20034;-48
2023/05/17 00:26:37;;;;;;;2.97;0.82;;;6.00;74.40;;;;;;5085084;28;20040;-53
2023/05/17 00:29:03;;;;;;;2.15;0.90;;;6.00;74.50;;;;;;5107641;28;20084;-52
2023/05/17 00:31:28;;;;;;;2.97;0.73;;;5.90;75.40;;;;;;5086393;28;20032;-52
2023/05/17 00:33:54;;;;;;;3.15;1.10;;;5.90;75.70;;;;;;5108747;28;20035;-50
2023/05/17 00:36:20;;;;;;;2.78;1.02;;;5.90;76.70;;;;;;5098031;28;20019;-49
2023/05/17 00:38:45;;;;;;;5.22;1.27;;;5.80;76.70;;;;;;5088050;28;20036;-49
2023/05/17 00:41:11;;;;;;;4.28;0.98;;;5.80;77.70;;;;;;5106736;28;20467;-50
2023/05/17 00:43:37;;;;;;;3.60;1.10;;;5.80;77.40;;;;;;5089314;28;20032;-51
2023/05/17 00:46:03;;;;;;;4.63;0.90;;;5.80;78.60;;;;;;5106826;28;20088;-52
2023/05/17 00:48:29;;;;;;;4.47;0.98;;;5.80;80.10;;;;;;5089346;28;20040;-51
2023/05/17 00:50:55;;;;;;;4.78;1.27;;;5.80;80.40;;;;;;5106652;28;20023;-53
2023/05/17 00:53:21;;;;;;;1.77;1.00;;;5.70;80.80;;;;;;5109332;28;20032;-52
2023/05/17 00:55:47;;;;;;;4.25;1.00;;;5.70;81.70;;;;;;5093131;28;20176;-50
2023/05/17 00:58:13;;;;;;;2.53;1.00;;;5.70;83.10;;;;;;5109261;28;20020;-48
2023/05/17 01:00:40;;;;;;;1.63;0.93;;;5.70;81.70;;;;;;5109067;28;20023;-48
2023/05/17 01:03:05;;;;;;;2.72;0.93;;;5.70;81.30;;;;;;5112025;28;20506;-53
2023/05/17 01:05:31;;;;;;;4.25;0.80;;;5.70;81.80;;;;;;5113438;28;20022;-51
2023/05/17 01:07:56;;;;;;;2.67;1.00;;;5.60;82.20;;;;;;5112072;28;20063;-48
2023/05/17 01:10:32;;;;;;;3.47;1.02;;;5.60;85.30;;;;;;5112557;28;20042;-53
2023/05/17 01:13:07;;;;;;;3.97;1.23;;;5.60;83.30;;;;;;5112388;28;20529;-52
2023/05/17 01:15:40;;;;;;;5.63;1.55;;;5.60;82.50;;;;;;5112655;27;20114;-50
2023/05/17 01:18:20;;;;;;;5.57;1.15;;;5.60;82.90;;;;;;5112006;28;20196;-53
2023/05/17 01:20:47;;;;;;;1.88;0.88;;;5.60;83.50;;;;;;5112934;28;20099;-52
2023/05/17 01:23:34;;;;;;;5.80;1.30;;;5.50;85.50;;;;;;5112730;28;20391;-52
2023/05/17 01:26:12;;;;;;;4.57;1.35;;;5.50;88.00;;;;;;5112976;28;20040;-51
2023/05/17 01:28:39;;;;;;;3.50;1.15;;;5.50;87.20;;;;;;5110764;28;20225;-47
2023/05/17 01:31:07;;;;;;;6.93;1.25;;;5.50;86.60;;;;;;5092787;28;20086;-51
2023/05/17 01:33:33;;;;;;;3.13;1.23;;;5.50;86.60;;;;;;5086233;28;20036;-50
2023/05/17 01:35:58;;;;;;;5.13;1.27;;;5.50;86.90;;;;;;5111802;28;20571;-47
2023/05/17 01:38:24;;;;;;;1.80;0.93;;;5.50;87.20;;;;;;5090974;28;20107;-53
2023/05/17 01:41:15;;;;;;;3.72;1.35;;;5.50;88.00;;;;;;5111824;28;20035;-48
2023/05/17 01:44:01;;;;;;;6.22;1.70;;;5.40;87.10;;;;;;5089766;28;20024;-51
2023/05/17 01:46:38;;;;;;;3.08;1.02;;;5.40;88.30;;;;;;5072050;28;20064;-49
2023/05/17 01:49:22;;;;;;;4.93;1.65;;;5.40;89.40;;;;;;5112553;28;20089;-49
2023/05/17 01:51:58;;;;;;;3.20;1.20;;;5.40;90.00;;;;;;5094693;28;20451;-48
2023/05/17 01:54:35;;;;;;;6.10;1.23;;;5.40;91.30;;;;;;5112357;28;20072;-53
2023/05/17 01:57:05;;;;;;;7.72;1.52;;;5.30;91.40;;;;;;5081179;28;20053;-52
2023/05/17 01:59:32;;;;;;;4.22;1.30;;;5.40;93.40;;;;;;5112046;28;20073;-51
2023/05/17 02:02:05;;;;;;;8.18;1.38;;;5.40;93.90;;;;;;5095627;28;20028;-52
2023/05/17 02:04:31;;;;;;;7.03;1.70;;;5.30;92.30;;;;;;5112216;27;20103;-50
2023/05/17 02:06:56;;;;;;;5.18;1.95;;;5.30;92.20;;;;;;5095259;28;20089;-53
2023/05/17 02:09:22;;;;;;;7.22;1.65;;;5.30;92.60;;;;;;5112045;28;20510;-53
2023/05/17 02:11:47;;;;;;;7.55;1.77;;;5.20;94.30;;;;;;5094273;28;20023;-51
2023/05/17 02:14:13;;;;;;;7.03;1.70;;;5.20;93.30;;;;;;5110967;28;20055;-49
2023/05/17 02:16:38;;;;;;;7.60;1.85;;;5.20;94.30;;;;;;5093043;28;20533;-49
2023/05/17 02:19:04;;;;;;;6.47;2.65;;;5.20;95.00;;;;;;5110524;28;20058;-48
2023/05/17 02:21:29;;;;;;;6.75;2.10;;;5.20;95.10;;;;;;5091728;28;20035;-51
2023/05/17 02:23:55;;;;;;;3.55;1.58;;;5.20;97.20;;;;;;5111632;28;20247;-49
2023/05/17 02:26:20;;;;;;;5.28;1.73;;;5.20;97.00;;;;;;5090070;28;20037;-51
2023/05/17 02:28:46;;;;;;;8.00;2.45;;;5.20;98.90;;;;;;5111392;28;20048;-51
2023/05/17 02:31:11;;;;;;;6.75;1.83;;;5.20;98.90;;;;;;5091835;28;20036;-51
2023/05/17 02:33:37;;;;;;;3.17;1.55;;;5.20;99.90;;;;;;5086668;28;20046;-48
2023/05/17 02:36:03;;;;;;;7.93;2.55;;;5.20;99.90;;;;;;5110679;28;20505;-49
2023/05/17 02:38:28;;;;;;;5.20;1.75;;;5.20;99.90;;;;;;5090178;28;20089;-50
2023/05/17 02:40:53;;;;;;;4.75;1.83;;;5.20;99.90;;;;;;5110549;28;20038;-53
2023/05/17 02:43:19;;;;;;;7.03;2.90;;;5.30;99.90;;;;;;5089789;28;20372;-49
2023/05/17 02:45:44;;;;;;;6.20;2.15;;;5.20;99.90;;;;;;5110554;28;20035;-53
2023/05/17 02:48:10;;;;;;;4.82;2.33;;;5.20;99.90;;;;;;5089695;28;20032;-51
2023/05/17 02:50:36;;;;;;;6.70;2.25;;;5.20;99.90;;;;;;5110400;28;20110;-51
2023/05/17 02:53:01;;;;;;;6.05;1.90;;;5.20;99.90;;;;;;5089464;28;20081;-53
2023/05/17 02:55:27;;;;;;;6.68;1.70;;;5.30;99.90;;;;;;5110591;28;20036;-54
2023/05/17 02:57:52;;;;;;;10.95;2.35;;;5.30;99.90;;;;;;5089497;28;20036;-51
2023/05/17 03:00:18;;;;;;;7.05;2.13;;;5.40;99.90;;;;;;5110350;28;20027;-49
2023/05/17 03:02:44;;;;;;;8.63;2.05;;;5.40;99.90;;;;;;5089366;28;20161;-49
2023/05/17 03:05:09;;;;;;;5.32;2.30;;;5.50;99.90;;;;;;5110487;28;20088;-52
2023/05/17 03:07:35;;;;;;;10.27;2.50;;;5.60;99.90;;;;;;5099581;28;20019;-56
2023/05/17 03:10:01;;;;;;;4.20;1.95;;;5.70;99.90;;;;;;5096747;28;20027;-50
2023/05/17 03:12:26;;;;;;;5.75;2.17;;;5.80;99.90;;;;;;5111002;28;20036;-49
2023/05/17 03:14:52;;;;;;;6.82;2.10;;;5.90;99.90;;;;;;5095617;28;20236;-51
2023/05/17 03:17:17;;;;;;;5.68;2.45;;;6.00;99.90;;;;;;5110860;28;20372;-53
2023/05/17 03:19:43;;;;;;;7.05;2.92;;;6.10;99.90;;;;;;5094220;28;20043;-53
2023/05/17 03:22:08;;;;;;;12.45;2.58;;;6.20;99.90;;;;;;5110898;28;20023;-54
2023/05/17 03:24:33;;;;;;;5.13;2.47;;;6.30;99.90;;;;;;5092868;28;20055;-52
2023/05/17 03:26:59;;;;;;;5.53;2.30;;;6.40;99.90;;;;;;5093614;28;20040;-50
2023/05/17 03:29:25;;;;;;;8.50;2.65;;;6.50;99.90;;;;;;5090137;28;20499;-49
2023/05/17 03:31:50;;;;;;;8.18;2.60;;;6.60;99.90;;;;;;5107707;28;20111;-52
2023/05/17 03:34:16;;;;;;;4.88;2.13;;;6.70;99.90;;;;;;5086220;28;20032;-48
2023/05/17 03:36:42;;;;;;;7.40;2.63;;;6.90;99.90;;;;;;5107734;28;20027;-53
2023/05/17 03:39:07;;;;;;;9.45;2.03;;;7.00;99.90;;;;;;5110684;28;20050;-49
2023/05/17 03:41:33;;;;;;;6.65;2.38;;;7.00;99.90;;;;;;5095038;28;20047;-47
2023/05/17 03:43:59;;;;;;;4.82;2.33;;;7.10;99.90;;;;;;5110622;28;20055;-51
2023/05/17 03:46:24;;;;;;;13.60;2.90;;;7.20;99.90;;;;;;5093763;28;20095;-53
2023/05/17 03:48:50;;;;;;;4.65;2.40;;;7.30;99.90;;;;;;5110379;28;20063;-53
2023/05/17 03:51:16;;;;;;;12.02;4.00;;;7.40;99.90;;;;;;5098258;28;20495;-53
2023/05/17 03:53:42;;;;;;;7.70;3.15;;;7.50;99.90;;;;;;5090107;28;20748;-51
2023/05/17 03:56:08;;;;;;;8.18;2.70;;;7.70;99.90;;;;;;5107609;28;20107;-50
2023/05/17 03:58:34;;;;;;;8.13;2.97;;;7.80;99.90;;;;;;5090127;28;20027;-54
2023/05/17 04:00:59;;;;;;;11.73;3.78;;;7.90;99.90;;;;;;5099025;28;20020;-53
2023/05/17 04:03:25;;;;;;;10.93;2.88;;;8.00;99.90;;;;;;5109217;28;20036;-50
2023/05/17 04:05:50;;;;;;;10.05;3.13;;;8.10;99.90;;;;;;5094593;28;20019;-54
2023/05/17 04:08:16;;;;;;;11.65;2.97;;;8.30;99.90;;;;;;5109929;28;20514;-54
2023/05/17 04:10:42;;;;;;;12.75;3.47;;;8.40;99.90;;;;;;5093295;28;20089;-53
2023/05/17 04:13:08;;;;;;;8.63;3.47;;;8.50;99.90;;;;;;5110020;28;20483;-50
2023/05/17 04:15:34;;;;;;;9.38;2.90;;;8.60;99.90;;;;;;5091960;28;20030;-51
2023/05/17 04:18:00;;;;;;;8.35;3.50;;;8.70;99.90;;;;;;5109939;28;20027;-53
2023/05/17 04:20:25;;;;;;;10.77;3.22;;;8.90;99.90;;;;;;5090937;28;20019;-51
2023/05/17 04:22:51;;;;;;;12.27;3.55;;;8.90;99.90;;;;;;5109634;28;20662;-52
2023/05/17 04:25:17;;;;;;;10.40;2.97;;;9.00;99.90;;;;;;5087896;28;20477;-54
2023/05/17 04:27:43;;;;;;;11.90;3.72;;;9.10;99.90;;;;;;5089126;28;20073;-53
2023/05/17 04:30:09;;;;;;;10.40;3.10;;;9.20;99.90;;;;;;5092718;28;20120;-52
2023/05/17 04:32:35;;;;;;;11.45;2.90;;;9.30;99.90;;;;;;5082394;28;20099;-54
2023/05/17 04:35:01;;;;;;;10.38;3.08;;;9.30;99.30;;;;;;5093594;28;20027;-49
2023/05/17 04:37:26;;;;;;;10.52;2.80;;;9.50;99.80;;;;;;5107553;28;20027;-48
2023/05/17 04:39:52;;;;;;;11.20;3.63;;;9.50;98.60;;;;;;5092121;28;20254;-51
2023/05/17 04:42:17;;;;;;;11.35;3.83;;;9.60;98.30;;;;;;5109676;28;20027;-50
2023/05/17 04:44:43;;;;;;;7.43;3.03;;;9.60;97.70;;;;;;5086710;28;20033;-50
2023/05/17 04:47:09;;;;;;;10.38;3.00;;;9.60;97.80;;;;;;5109809;28;20027;-53
2023/05/17 04:49:34;;;;;;;7.70;3.00;;;9.70;97.00;;;;;;5089153;28;20036;-52
2023/05/17 04:52:00;;;;;;;8.75;2.90;;;9.70;96.50;;;;;;5109569;28;20019;-52
2023/05/17 04:54:26;;;;;;;12.10;3.17;;;9.80;96.40;;;;;;5088282;28;20081;-51
2023/05/17 04:56:51;;;;;;;9.75;3.58;;;9.80;96.00;;;;;;5109000;28;20387;-54
2023/05/17 04:59:17;;;;;;;13.32;3.58;;;9.80;95.80;;;;;;5089129;28;20522;-54
2023/05/17 05:01:42;;;;;;;6.28;3.20;;;9.90;95.00;;;;;;5106760;28;20024;-53
2023/05/17 05:04:08;;;;;;;6.45;2.75;;;10.10;94.50;;;;;;5090803;28;20023;-52
2023/05/17 05:06:33;;;;;;;7.90;3.25;;;10.40;93.70;;;;;;5068803;28;20036;-52
2023/05/17 05:09:00;;;;;;;11.82;3.38;;;10.60;92.10;;;;;;5104931;28;20435;-53
2023/05/17 05:11:25;;;;;;;6.95;2.90;;;10.90;90.70;;;;;;5087341;28;20114;-50
2023/05/17 05:13:51;;;;;;;12.18;2.75;;;11.10;89.00;;;;;;5093457;28;20140;-54
2023/05/17 05:16:16;;;;;;;6.55;2.90;;;11.60;86.90;;;;;;5088331;28;20023;-51
2023/05/17 05:18:42;;;;;;;9.48;2.70;;;12.70;81.20;;;;;;5105836;28;20036;-51
2023/05/17 05:21:07;;;;;;;9.82;2.72;;;14.10;75.20;;;;;;5088781;28;20031;-57
2023/05/17 05:23:33;;;;;;;9.65;2.55;;;15.50;68.80;;;;;;5096982;28;20024;-49
2023/05/17 05:25:58;;;;;;;7.28;2.83;;;16.80;64.50;;;;;;5103765;28;20089;-52
2023/05/17 05:28:24;;;;;;;10.38;2.83;;;17.80;58.60;;;;;;5085169;28;20040;-52
2023/05/17 05:30:50;;;;;;;6.00;2.70;;;18.80;54.80;;;;;;5099445;28;20069;-48
2023/05/17 05:33:15;;;;;;;4.82;2.55;;;19.70;50.50;;;;;;5099039;28;20078;-46
2023/05/17 05:35:41;;;;;;;5.65;2.78;;;20.50;46.60;;;;;;5106401;28;20054;-49
2023/05/17 05:38:06;;;;;;;6.97;2.95;;;21.30;43.70;;;;;;5086459;28;20039;-50
2023/05/17 05:40:32;;;;;;;7.90;3.17;;;21.80;37.50;;;;;;5074739;28;20033;-47
2023/05/17 05:42:57;;;;;;;5.28;2.85;;;22.30;31.40;;;;;;5089529;28;20032;-50
2023/05/17 05:45:23;;;;;;;7.90;2.65;;;22.50;32.30;;;;;;5085782;28;20039;-49
2023/05/17 05:47:48;;;;;;;5.72;2.60;;;23.10;29.00;;;;;;5086643;28;20490;-46
2023/05/17 05:50:14;;;;;;;5.00;2.60;;;23.70;27.30;;;;;;5073267;28;20088;-50
2023/05/17 05:52:39;;;;;;;6.28;2.80;;;24.40;25.70;;;;;;5085187;28;20047;-50
2023/05/17 05:55:05;;;;;;;9.18;3.08;;;25.00;23.00;;;;;;5076815;28;20133;-47
2023/05/17 05:57:31;;;;;;;4.65;2.53;;;25.50;20.50;;;;;;5086128;28;20774;-50
2023/05/17 05:59:56;;;;;;;4.75;2.17;;;25.80;18.90;;;;;;5081622;28;20074;-47
2023/05/17 06:02:22;;;;;;;7.22;2.53;;;26.10;15.20;;;;;;5108731;28;20027;-52
2023/05/17 06:04:47;;;;;;;8.02;2.50;;;25.70;15.40;;;;;;5075415;28;20035;-50
2023/05/17 06:07:13;;;;;;;4.78;2.17;;;25.50;14.40;;;;;;5099135;28;20423;-53
2023/05/17 06:09:40;;;;;;;6.70;2.58;;;24.90;14.30;;;;;;5085191;28;20049;-48
2023/05/17 06:12:06;;;;;;;7.60;2.83;;;24.00;10.10;;;;;;5108473;28;20038;-48
2023/05/17 06:14:31;;;;;;;7.45;2.97;;;24.60;12.80;;;;;;5099093;28;20031;-51
2023/05/17 06:16:57;;;;;;;7.82;2.90;;;25.00;10.90;;;;;;5085371;28;20063;-49
2023/05/17 06:19:22;;;;;;;6.32;2.03;;;25.70;7.20;;;;;;5088513;28;20545;-50
2023/05/17 06:21:48;;;;;;;6.28;2.10;;;24.90;8.90;;;;;;5088445;28;20024;-48
2023/05/17 06:24:16;;;;;;;6.10;2.00;;;23.70;9.20;;;;;;5110354;28;20039;-52
2023/05/17 06:26:42;;;;;;;6.18;2.25;;;22.50;9.40;;;;;;5088719;28;20037;-51
2023/05/17 06:29:08;;;;;;;11.98;2.72;;;21.40;10.80;;;;;;5110431;28;20137;-49
2023/05/17 06:31:34;;;;;;;8.35;2.25;;;21.00;11.10;;;;;;5089794;27;20077;-56
2023/05/17 06:33:59;;;;;;;6.57;2.05;;;21.40;9.60;;;;;;5110184;28;20027;-54
2023/05/17 06:36:26;;;;;;;7.57;2.25;;;22.70;8.30;;;;;;5089223;28;20044;-56
2023/05/17 06:38:53;;;;;;;4.95;2.10;;;23.80;4.70;;;;;;5110220;28;20501;-55
2023/05/17 06:41:19;;;;;;;5.22;2.55;;;24.30;6.80;;;;;;5089005;28;20035;-58
2023/05/17 06:43:46;;;;;;;7.60;2.05;;;24.70;3.40;;;;;;5109777;28;20031;-56
2023/05/17 06:46:11;;;;;;;6.13;2.13;;;24.60;5.30;;;;;;5088361;28;20040;-56
2023/05/17 06:48:37;;;;;;;5.20;2.20;;;25.10;5.50;;;;;;5109947;28;20114;-55
2023/05/17 06:51:03;;;;;;;4.93;1.75;;;25.20;4.80;;;;;;5099944;28;20036;-56
2023/05/17 06:53:28;;;;;;;5.90;1.88;;;25.30;5.30;;;;;;5090689;28;20089;-56
2023/05/17 06:55:54;;;;;;;6.70;2.40;;;25.70;4.20;;;;;;5107780;28;20070;-57
2023/05/17 06:58:19;;;;;;;5.07;2.20;;;25.10;3.30;;;;;;5090484;28;20064;-57
2023/05/17 07:00:46;;;;;;;7.03;2.08;;;23.80;4.00;;;;;;5107438;28;20024;-57
2023/05/17 07:03:12;;;;;;;6.88;2.33;;;23.80;3.70;;;;;;5090345;28;20097;-55
2023/05/17 07:05:37;;;;;;;5.47;2.25;;;24.10;3.80;;;;;;5108129;28;20035;-57
2023/05/17 07:08:03;;;;;;;9.25;2.42;;;23.60;4.80;;;;;;5110382;28;20039;-56
2023/05/17 07:10:29;;;;;;;5.20;2.10;;;23.10;5.40;;;;;;5094754;28;20031;-57
2023/05/17 07:12:54;;;;;;;8.85;2.17;;;23.00;5.60;;;;;;5110416;28;20019;-55
2023/05/17 07:15:20;;;;;;;5.82;2.10;;;23.10;5.10;;;;;;5092132;28;20066;-57
2023/05/17 07:17:46;;;;;;;6.65;2.30;;;24.10;4.60;;;;;;5110046;28;20034;-56
2023/05/17 07:20:12;;;;;;;6.50;2.40;;;24.10;2.20;;;;;;5092316;28;20024;-57
2023/05/17 07:22:37;;;;;;;4.97;1.98;;;24.20;4.10;;;;;;5109721;28;20020;-58
2023/05/17 07:25:05;;;;;;;5.28;2.17;;;24.30;3.80;;;;;;5090863;28;20027;-52
2023/05/17 07:27:31;;;;;;;12.00;2.97;;;23.60;3.80;;;;;;5108353;28;20028;-56
2023/05/17 07:29:57;;;;;;;4.57;2.08;;;23.20;1.50;;;;;;5090011;28;20532;-58
2023/05/17 07:32:22;;;;;;;4.40;2.22;;;24.00;2.30;;;;;;5110150;28;20027;-53
2023/05/17 07:34:48;;;;;;;5.10;1.98;;;25.40;2.50;;;;;;5088537;28;20032;-55
2023/05/17 07:37:14;;;;;;;6.20;2.28;;;25.10;2.00;;;;;;5109605;28;20485;-55
2023/05/17 07:39:40;;;;;;;6.05;2.10;;;25.30;2.20;;;;;;5089732;28;20394;-52
2023/05/17 07:42:06;;;;;;;4.82;2.00;;;25.50;2.20;;;;;;5107119;28;20538;-53
2023/05/17 07:44:32;;;;;;;4.75;1.83;;;25.70;2.30;;;;;;5087826;28;20036;-53
2023/05/17 07:46:57;;;;;;;4.90;1.52;;;25.80;2.00;;;;;;5107529;28;20410;-56
2023/05/17 07:49:23;;;;;;;3.13;1.80;;;25.70;1.80;;;;;;5095230;28;20048;-54
2023/05/17 07:51:49;;;;;;;7.30;1.90;;;25.80;1.70;;;;;;5108836;28;20019;-56
2023/05/17 07:54:26;;;;;;;4.95;1.92;;;25.90;1.00;;;;;;5087334;28;20023;-56
2023/05/17 07:56:53;;;;;;;4.97;1.60;;;26.70;1.00;;;;;;5109013;28;20076;-57
2023/05/17 07:59:22;;;;;;;5.22;2.13;;;27.10;1.00;;;;;;5087339;28;20054;-56
2023/05/17 08:01:48;;;;;;;4.90;1.67;;;26.60;1.00;;;;;;5109380;28;20032;-57
2023/05/17 08:04:13;;;;;;;5.47;2.00;;;26.80;1.00;;;;;;5087740;28;20070;-55
2023/05/17 08:06:40;;;;;;;7.53;1.92;;;27.10;1.00;;;;;;5108535;28;20044;-54
2023/05/17 08:09:06;;;;;;;4.65;1.63;;;27.20;1.00;;;;;;5072909;28;20048;-56
2023/05/17 08:11:33;;;;;;;7.10;2.00;;;26.70;1.00;;;;;;5107538;28;20047;-53
2023/05/17 08:14:00;;;;;;;4.85;1.70;;;26.20;1.00;;;;;;5087813;28;20448;-54
2023/05/17 08:16:26;;;;;;;3.90;1.80;;;26.50;1.00;;;;;;5108954;28;20131;-56
2023/05/17 08:18:51;;;;;;;4.07;1.60;;;26.70;1.00;;;;;;5087715;28;20235;-55
2023/05/17 08:21:17;;;;;;;4.07;1.48;;;26.40;1.00;;;;;;5108454;28;20627;-55
2023/05/17 08:23:42;;;;;;;8.32;2.10;;;26.10;1.00;;;;;;5087180;28;20024;-54
2023/05/17 08:26:08;;;;;;;5.53;1.77;;;25.30;1.00;;;;;;5099108;28;20589;-55
2023/05/17 08:28:34;;;;;;;4.45;1.80;;;25.40;1.00;;;;;;5086015;28;20372;-56
2023/05/17 08:30:59;;;;;;;3.55;1.60;;;25.30;1.00;;;;;;5089024;28;20020;-55
2023/05/17 08:33:26;;;;;;;3.70;1.80;;;25.20;1.00;;;;;;5101889;28;20027;-58
2023/05/17 08:35:54;;;;;;;5.47;1.60;;;25.30;1.00;;;;;;5088612;28;20024;-56
2023/05/17 08:38:20;;;;;;;5.47;1.85;;;25.50;1.00;;;;;;5102660;28;20089;-55
2023/05/17 08:40:53;;;;;;;4.13;1.80;;;24.90;1.00;;;;;;5088734;28;20016;-56
2023/05/17 08:43:20;;;;;;;4.18;1.88;;;24.80;1.00;;;;;;5070332;28;20042;-57
2023/05/17 08:45:48;;;;;;;5.75;1.67;;;24.70;1.00;;;;;;5088944;28;20431;-56
2023/05/17 08:48:21;;;;;;;4.30;1.45;;;24.70;1.00;;;;;;5096719;28;20072;-56
2023/05/17 08:50:49;;;;;;;4.10;1.60;;;24.70;1.00;;;;;;5108280;28;20032;-57
2023/05/17 08:53:16;;;;;;;6.38;1.85;;;24.70;1.00;;;;;;5086831;28;20032;-55
2023/05/17 08:55:49;;;;;;;5.60;2.00;;;24.50;1.00;;;;;;5088681;28;20084;-54
2023/05/17 08:58:20;;;;;;;4.93;1.92;;;24.20;1.00;;;;;;5069515;28;20032;-57
2023/05/17 09:00:48;;;;;;;5.93;1.83;;;23.60;1.00;;;;;;5088552;28;20403;-53
2023/05/17 09:03:16;;;;;;;5.05;1.52;;;23.40;1.00;;;;;;5102163;28;20098;-50
2023/05/17 09:05:43;;;;;;;4.55;1.65;;;23.50;1.00;;;;;;5099484;28;20100;-56
2023/05/17 09:08:12;;;;;;;3.88;1.73;;;23.00;1.30;;;;;;5086796;28;20066;-57
2023/05/17 09:10:41;;;;;;;4.85;1.73;;;23.10;1.10;;;;;;5088434;28;20024;-54
2023/05/17 09:13:07;;;;;;;4.25;1.70;;;23.10;1.00;;;;;;5086157;28;20484;-57
2023/05/17 09:15:33;;;;;;;4.53;1.85;;;22.90;1.00;;;;;;5087852;28;20024;-54
2023/05/17 09:17:59;;;;;;;4.50;1.45;;;22.60;1.00;;;;;;5086485;28;20476;-52
2023/05/17 09:20:35;;;;;;;3.92;1.48;;;22.70;1.20;;;;;;5088254;28;20379;-55
2023/05/17 09:23:05;;;;;;;2.80;1.40;;;22.70;1.00;;;;;;5068615;28;20115;-56
2023/05/17 09:25:32;;;;;;;3.90;2.03;;;22.70;1.00;;;;;;5097182;28;20031;-55
2023/05/17 09:28:02;;;;;;;4.15;1.60;;;22.60;1.00;;;;;;5109792;28;20032;-56
2023/05/17 09:30:33;;;;;;;3.92;1.40;;;22.70;1.00;;;;;;5092517;28;20454;-58
2023/05/17 09:33:09;;;;;;;2.58;1.10;;;22.80;1.00;;;;;;5109007;28;20031;-54
2023/05/17 09:35:37;;;;;;;3.35;1.50;;;22.90;1.00;;;;;;5091709;28;20893;-57
2023/05/17 09:38:12;;;;;;;6.07;1.60;;;22.90;1.00;;;;;;5107752;28;20028;-53
2023/05/17 09:40:46;;;;;;;3.47;1.52;;;22.90;1.00;;;;;;5092164;28;20047;-55
2023/05/17 09:43:13;;;;;;;6.70;1.88;;;22.70;1.00;;;;;;5072637;28;20047;-54
2023/05/17 09:45:40;;;;;;;6.68;2.25;;;22.50;1.00;;;;;;5091790;28;20039;-55
2023/05/17 09:48:17;;;;;;;3.30;1.38;;;22.10;1.00;;;;;;5106000;28;20036;-56
2023/05/17 09:50:50;;;;;;;2.60;1.20;;;22.00;1.00;;;;;;5091718;28;20107;-52
2023/05/17 09:53:22;;;;;;;7.95;1.90;;;22.00;1.00;;;;;;5073023;28;20115;-54
2023/05/17 09:55:48;;;;;;;4.43;1.50;;;21.90;1.00;;;;;;5091772;28;20721;-53
2023/05/17 09:58:14;;;;;;;6.20;1.63;;;21.70;1.00;;;;;;5106190;28;20096;-50
2023/05/17 10:00:42;;;;;;;6.38;1.73;;;21.90;1.00;;;;;;5091593;28;20016;-52
2023/05/17 10:03:10;;;;;;;6.38;2.10;;;21.70;1.00;;;;;;5107273;28;20032;-52
2023/05/17 10:05:37;;;;;;;2.83;1.40;;;21.10;1.00;;;;;;5101936;28;20045;-55
2023/05/17 10:08:04;;;;;;;3.38;1.35;;;20.80;1.40;;;;;;5090043;28;20086;-52
2023/05/17 10:10:31;;;;;;;8.95;2.28;;;20.60;1.50;;;;;;5099526;28;20483;-51
2023/05/17 10:12:59;;;;;;;5.10;1.83;;;20.50;1.40;;;;;;5108156;28;20117;-50
2023/05/17 10:15:26;;;;;;;6.38;1.85;;;20.20;1.30;;;;;;5091492;28;20020;-54
2023/05/17 10:17:53;;;;;;;6.63;2.17;;;19.90;1.60;;;;;;5109058;28;20031;-51
2023/05/17 10:20:20;;;;;;;4.53;1.85;;;19.80;2.10;;;;;;5091646;28;20099;-54
2023/05/17 10:22:47;;;;;;;4.18;1.67;;;19.60;1.80;;;;;;5111339;28;20034;-52
2023/05/17 10:25:13;;;;;;;5.05;1.77;;;19.30;1.80;;;;;;5088399;28;20093;-55
2023/05/17 10:27:39;;;;;;;3.35;1.63;;;19.20;2.10;;;;;;5091036;28;20429;-49
2023/05/17 10:30:06;;;;;;;5.35;1.50;;;19.20;2.00;;;;;;5090443;28;20028;-51
2023/05/17 10:32:32;;;;;;;7.72;1.83;;;19.20;1.90;;;;;;5110844;28;20051;-54
2023/05/17 10:34:58;;;;;;;3.92;1.20;;;19.10;1.80;;;;;;5088710;28;20086;-53
2023/05/17 10:37:25;;;;;;;4.72;1.70;;;19.10;1.90;;;;;;5110283;28;20032;-53
2023/05/17 10:39:51;;;;;;;4.20;1.38;;;19.00;1.70;;;;;;5088228;28;20020;-52
2023/05/17 10:42:18;;;;;;;8.35;1.95;;;18.70;1.50;;;;;;5110504;28;20030;-54
2023/05/17 10:44:46;;;;;;;4.38;1.60;;;18.60;1.70;;;;;;5089648;28;20081;-51
2023/05/17 10:47:14;;;;;;;5.05;1.85;;;18.60;1.90;;;;;;5110482;28;20028;-50
2023/05/17 10:49:40;;;;;;;5.65;1.75;;;18.50;2.00;;;;;;5081010;28;20047;-54
2023/05/17 10:52:20;;;;;;;6.53;1.55;;;18.40;2.40;;;;;;5109858;28;20030;-54
2023/05/17 10:54:48;;;;;;;9.18;2.22;;;18.30;3.20;;;;;;5084359;28;20031;-55
2023/05/17 10:57:33;;;;;;;6.85;1.95;;;18.20;2.80;;;;;;5110604;28;20023;-53
2023/05/17 11:00:00;;;;;;;4.63;1.88;;;18.20;3.60;;;;;;5086317;28;20032;-54
2023/05/17 11:02:27;;;;;;;7.68;2.35;;;18.10;3.70;;;;;;5109953;28;20032;-55
2023/05/17 11:04:54;;;;;;;6.97;1.90;;;18.10;3.20;;;;;;5092744;28;20024;-53
2023/05/17 11:07:30;;;;;;;5.80;1.63;;;18.00;3.60;;;;;;5109232;28;20491;-54
2023/05/17 11:09:59;;;;;;;5.88;1.55;;;17.70;3.60;;;;;;5085568;28;20416;-51
2023/05/17 11:12:29;;;;;;;5.35;1.80;;;17.60;4.00;;;;;;5110263;28;20116;-55
2023/05/17 11:14:56;;;;;;;4.53;1.50;;;17.60;4.30;;;;;;5088621;28;20492;-53
2023/05/17 11:17:25;;;;;;;10.88;1.70;;;17.50;4.80;;;;;;5110166;28;20028;-53
2023/05/17 11:19:55;;;;;;;5.38;1.42;;;17.60;4.60;;;;;;5088600;28;20027;-50
2023/05/17 11:22:26;;;;;;;7.15;2.83;;;17.70;4.60;;;;;;5108781;28;20051;-56
2023/05/17 11:24:56;;;;;;;6.15;1.50;;;17.70;4.20;;;;;;5088296;28;20042;-54
2023/05/17 11:27:26;;;;;;;6.30;1.67;;;17.60;4.40;;;;;;5068479;28;20480;-53
2023/05/17 11:29:57;;;;;;;6.07;1.88;;;17.50;4.00;;;;;;5091242;28;20659;-53
2023/05/17 11:32:31;;;;;;;3.38;1.40;;;17.60;4.60;;;;;;5109345;28;20030;-52
2023/05/17 11:34:59;;;;;;;5.65;1.60;;;17.50;5.30;;;;;;5088121;28;20043;-54
2023/05/17 11:37:29;;;;;;;7.38;1.65;;;17.60;4.60;;;;;;5109514;28;20587;-54
2023/05/17 11:40:03;;;;;;;7.47;2.22;;;17.70;4.80;;;;;;5088050;28;20480;-54
2023/05/17 11:42:29;;;;;;;7.05;1.75;;;17.80;5.50;;;;;;5108373;28;20055;-52
2023/05/17 11:45:00;;;;;;;5.28;1.52;;;17.60;4.80;;;;;;5088241;28;20728;-54
2023/05/17 11:47:27;;;;;;;4.57;1.88;;;17.50;5.10;;;;;;5108332;28;20019;-54
2023/05/17 11:49:53;;;;;;;6.22;1.92;;;17.40;4.70;;;;;;5088220;28;20491;-51
2023/05/17 11:52:19;;;;;;;5.97;2.17;;;17.40;5.10;;;;;;5108947;28;20040;-53
2023/05/17 11:54:50;;;;;;;5.72;1.95;;;17.40;4.60;;;;;;5087913;28;20399;-54
2023/05/17 11:57:19;;;;;;;9.85;2.03;;;17.30;5.30;;;;;;5069485;28;20035;-52
2023/05/17 11:59:46;;;;;;;7.78;1.90;;;17.10;5.60;;;;;;5089961;28;20181;-53
2023/05/17 12:02:28;;;;;;;7.97;2.13;;;17.00;5.90;;;;;;5108945;28;20028;-53
2023/05/17 12:04:53;;;;;;;6.13;2.22;;;16.60;5.80;;;;;;5088533;28;20023;-55
2023/05/17 12:07:19;;;;;;;8.40;2.10;;;16.70;6.10;;;;;;5109499;28;20030;-55
2023/05/17 12:09:46;;;;;;;5.82;1.65;;;16.80;6.20;;;;;;5087914;28;20027;-51
2023/05/17 12:12:12;;;;;;;5.95;1.90;;;16.90;5.30;;;;;;5108965;28;20582;-54
2023/05/17 12:14:37;;;;;;;10.88;2.40;;;17.00;5.90;;;;;;5087454;28;20031;-51
2023/05/17 12:17:07;;;;;;;8.10;1.90;;;16.50;5.00;;;;;;5108931;28;20111;-54
2023/05/17 12:19:32;;;;;;;8.23;2.30;;;16.40;5.40;;;;;;5087305;28;20020;-53
2023/05/17 12:22:11;;;;;;;5.40;1.67;;;16.50;5.40;;;;;;5108465;28;20602;-52
2023/05/17 12:24:41;;;;;;;7.70;2.33;;;16.50;6.20;;;;;;5081551;28;20031;-54
2023/05/17 12:27:07;;;;;;;8.70;2.55;;;16.60;6.20;;;;;;5068613;28;20043;-54
2023/05/17 12:29:33;;;;;;;6.32;1.50;;;16.70;5.90;;;;;;5091940;28;20110;-54
2023/05/17 12:32:00;;;;;;;8.95;1.50;;;16.90;5.70;;;;;;5107044;28;20114;-54
2023/05/17 12:34:27;;;;;;;7.00;1.40;;;16.90;6.00;;;;;;5087251;27;20035;-50
2023/05/17 12:36:53;;;;;;;5.35;1.40;;;16.80;5.50;;;;;;5108755;28;20020;-54
2023/05/17 12:39:22;;;;;;;6.85;1.50;;;16.80;5.50;;;;;;5087159;28;20081;-56
2023/05/17 12:41:50;;;;;;;5.75;1.65;;;16.80;6.00;;;;;;5108972;28;20392;-53
2023/05/17 12:44:19;;;;;;;5.28;1.98;;;16.80;5.30;;;;;;5087690;28;20020;-55
2023/05/17 12:46:52;;;;;;;10.25;2.00;;;16.80;5.00;;;;;;5108585;28;20114;-52
2023/05/17 12:49:19;;;;;;;8.82;1.67;;;16.20;4.40;;;;;;5090526;28;20036;-53
2023/05/17 12:51:48;;;;;;;5.50;2.10;;;16.10;5.40;;;;;;5088575;28;20020;-54
2023/05/17 12:54:23;;;;;;;6.75;1.63;;;16.10;6.00;;;;;;5106463;28;20110;-52
2023/05/17 12:56:48;;;;;;;6.45;1.63;;;16.10;5.40;;;;;;5089633;28;20028;-54